Kerteminde, Denmark
Current Conditions -  °F | °C
As of 11:50 AM on Wednesday 26 Nov 2014 (Local Time) from EKOD Reporting Station
Broken Clouds Broken Clouds  
Wind Chill: 39°   Ceiling: 2100
Heat Index: 45°   Visibility: 6mi
Dew Point: 43°   Wind: 10mph
Humidity: 93%   Direction: 130°SE
Pressure: 30.24"   Gusts: NA
Location:  55.45°N, 10.66°E
Report Text: EKOD 261050Z 13009KT 9999 BKN021 07/06 Q1024
Loading
Personal Weather Stations






























Interactive Weather Map New forecast layout! Learn more

10-Day Weather Forecast

Advertisements
Track Severe Weather on mobile